Skip Navigation LinksHome page > Weather > Current weather Skip Navigation Links

Current Weather

Istanbul / Ataturk, Turkey

For information only: do not use for flight planning or navigation.
Latest weather
Observation time Tuesday, December 1, 2020 6:20 PM +03
Local time Tuesday, December 1, 2020 6:44 PM +03
Flight conditions Visual Meteorological Conditions
Winds
Wind direction North (360°)
Wind speed 16 mph
Visibility 6.2 mi.
Sky condition
Ceiling 3,200 ft. broken clouds
Cloud layer few clouds 1,300 ft.
Cloud layer broken clouds 3,200 ft.
Temperature 43°F
Dewpoint 39°F
Altimeter 30.15 in.Hg
Derived measurements
Relative humidity 87%
Wind chill 35°F
Density altitude -1180 ft.
Remarks
No significant changes expected in the next two hours.
METAR LTBA 011520Z 36014KT 9999 FEW013 BKN032 06/04 Q1021 NOSIG RMK RWY23 35014KT

Settings

Location code

InnerDrive.Weather 4.0.6770.0 Release CLR 4.0.30319.42000
Copyright ©2018 Inner Drive Technology. All rights reserved. Portions Copyright ©1986-2018 David Braverman.

Find weather

Site navigation


Skip Navigation Links

Place info

Page info

PayPal - The safer, easier way to pay online!

Return home.

Copyright ©2020 Inner Drive Technology. Purveyors of fine, hand-crafted computer software. Page printed 2020-12-01T15:44:32 UTC.